| time (UTC) | temp F | wind direction | speed knots | gust knots | rain 1hr in | rain 24hr in | rain mn in | humidity % | barometer mb |
| 20260507003645 | 46 | 303 | 0.0 | 0.9 | 0.00 | 0.74 | 0.01 | 93 | 1010.6 |
| 20260507003145 | 46 | 303 | 0.0 | 0.9 | 0.00 | 0.74 | 0.01 | 93 | 1010.7 |
| 20260507002645 | 46 | 303 | 0.0 | 0.0 | 0.00 | 0.74 | 0.01 | 93 | 1010.8 |
| 20260507002144 | 46 | 303 | 0.0 | 0.0 | 0.00 | 0.74 | 0.01 | 93 | 1010.6 |
| 20260507001644 | 46 | 303 | 0.0 | 0.9 | 0.00 | 0.74 | 0.01 | 93 | 1010.7 |
| 20260507001144 | 46 | 303 | 0.0 | 0.9 | 0.00 | 0.74 | 0.01 | 93 | 1010.6 |
| 20260507000644 | 46 | 303 | 0.0 | 0.0 | 0.00 | 0.74 | 0.01 | 93 | 1010.6 |
| 20260507000144 | 46 | 303 | 0.0 | 0.9 | 0.00 | 0.74 | 0.01 | 93 | 1010.6 |
| 20260506235643 | 46 | 303 | 0.0 | 1.7 | 0.00 | 0.74 | 0.01 | 93 | 1010.5 |
| 20260506235143 | 46 | 303 | 0.0 | 0.9 | 0.00 | 0.74 | 0.01 | 93 | 1010.7 |
| 20260506234643 | 46 | 303 | 0.0 | 0.0 | 0.00 | 0.74 | 0.01 | 93 | 1010.6 |
| 20260506234143 | 46 | 303 | 0.0 | 0.9 | 0.00 | 0.74 | 0.01 | 93 | 1010.7 |
| 20260506233642 | 46 | 303 | 0.9 | 2.6 | 0.01 | 0.74 | 0.01 | 93 | 1010.6 |
| 20260506233142 | 46 | 301 | 0.9 | 2.6 | 0.01 | 0.74 | 0.01 | 93 | 1010.6 |
| 20260506232642 | 46 | 313 | 0.0 | 2.6 | 0.01 | 0.74 | 0.01 | 93 | 1010.5 |
| 20260506232141 | 46 | 314 | 0.0 | 0.9 | 0.01 | 0.74 | 0.01 | 93 | 1010.6 |
| 20260506231641 | 46 | 303 | 0.0 | 0.9 | 0.01 | 0.74 | 0.01 | 93 | 1010.5 |
| 20260506231141 | 46 | 303 | 0.0 | 0.9 | 0.01 | 0.74 | 0.01 | 93 | 1010.5 |
| 20260506230641 | 46 | 304 | 0.0 | 0.0 | 0.01 | 0.74 | 0.01 | 93 | 1010.5 |
| 20260506230140 | 46 | 111 | 0.0 | 0.0 | 0.01 | 0.74 | 0.01 | 93 | 1010.5 |
| 20260506225640 | 47 | 317 | 0.0 | 0.0 | 0.01 | 0.74 | 0.01 | 92 | 1010.4 |
| 20260506225140 | 47 | 317 | 0.0 | 0.9 | 0.01 | 0.74 | 0.01 | 92 | 1010.4 |
| 20260506224639 | 47 | 317 | 0.0 | 0.0 | 0.01 | 0.74 | 0.01 | 92 | 1010.4 |
| 20260506224139 | 47 | 317 | 0.0 | 0.0 | 0.01 | 0.74 | 0.01 | 92 | 1010.4 |
| 20260506223639 | 47 | 317 | 0.0 | 0.0 | 0.00 | 0.73 | 0.00 | 92 | 1010.4 |
| 20260506223139 | 47 | 317 | 0.0 | 0.0 | 0.01 | 0.73 | 0.00 | 91 | 1010.4 |
| 20260506222638 | 47 | 317 | 0.0 | 1.7 | 0.01 | 0.73 | 0.00 | 91 | 1010.3 |
| 20260506222138 | 47 | 311 | 0.0 | 0.9 | 0.01 | 0.73 | 0.00 | 91 | 1010.4 |
| 20260506221638 | 48 | 311 | 0.0 | 0.0 | 0.02 | 0.73 | 0.00 | 91 | 1010.4 |
| 20260506221138 | 48 | 311 | 0.0 | 1.7 | 0.02 | 0.73 | 0.00 | 91 | 1010.4 |
| 20260506220637 | 48 | 307 | 0.0 | 0.0 | 0.02 | 0.73 | 0.00 | 91 | 1010.4 |
| 20260506220137 | 48 | 307 | 0.0 | 0.0 | 0.02 | 0.73 | 0.00 | 90 | 1010.3 |
| 20260506215637 | 48 | 307 | 0.0 | 1.7 | 0.02 | 0.73 | 0.73 | 90 | 1010.3 |
| 20260506215137 | 48 | 314 | 0.0 | 0.9 | 0.02 | 0.73 | 0.73 | 91 | 1010.3 |
| 20260506214636 | 48 | 314 | 0.0 | 0.9 | 0.03 | 0.73 | 0.73 | 91 | 1010.2 |
| 20260506214136 | 48 | 314 | 0.0 | 1.7 | 0.04 | 0.73 | 0.73 | 91 | 1010.2 |
| 20260506213636 | 48 | 321 | 0.0 | 1.7 | 0.06 | 0.73 | 0.73 | 92 | 1010.2 |
| 20260506213135 | 48 | 305 | 0.0 | 0.0 | 0.06 | 0.72 | 0.72 | 92 | 1010.1 |
| 20260506212635 | 48 | 305 | 0.0 | 0.0 | 0.07 | 0.72 | 0.72 | 92 | 1010.1 |
| 20260506212135 | 48 | 305 | 0.0 | 0.0 | 0.10 | 0.72 | 0.72 | 92 | 1010.1 |
| 20260506211635 | 48 | 305 | 0.0 | 0.0 | 0.10 | 0.71 | 0.71 | 91 | 1010.0 |
| 20260506211134 | 48 | 305 | 0.0 | 0.0 | 0.10 | 0.71 | 0.71 | 91 | 1010.0 |
| 20260506210634 | 48 | 305 | 0.0 | 0.0 | 0.10 | 0.71 | 0.71 | 91 | 1010.0 |
| 20260506210134 | 48 | 305 | 0.0 | 0.0 | 0.10 | 0.71 | 0.71 | 90 | 1009.9 |
| 20260506205634 | 48 | 305 | 0.0 | 0.0 | 0.10 | 0.74 | 0.71 | 90 | 1010.0 |
| 20260506205134 | 49 | 305 | 0.0 | 0.0 | 0.10 | 0.74 | 0.71 | 89 | 1009.9 |
| 20260506204633 | 49 | 305 | 0.0 | 3.5 | 0.09 | 0.73 | 0.70 | 88 | 1010.0 |
| 20260506204133 | 49 | 302 | 0.0 | 2.6 | 0.08 | 0.72 | 0.69 | 87 | 1009.9 |
| 20260506203632 | 49 | 300 | 0.0 | 1.7 | 0.06 | 0.70 | 0.67 | 87 | 1010.0 |
| 20260506203132 | 49 | 290 | 0.9 | 1.7 | 0.05 | 0.69 | 0.66 | 86 | 1010.0 |
| 20260506202632 | 50 | 314 | 0.9 | 4.3 | 0.04 | 0.68 | 0.65 | 83 | 1009.9 |
| 20260506202132 | 51 | 319 | 0.0 | 2.6 | 0.01 | 0.65 | 0.62 | 80 | 1009.8 |
| 20260506201631 | 52 | 302 | 0.0 | 3.5 | 0.00 | 0.64 | 0.61 | 80 | 1009.8 |
| 20260506201131 | 52 | 311 | 0.0 | 0.0 | 0.00 | 0.64 | 0.61 | 80 | 1009.6 |
| 20260506200631 | 52 | 311 | 0.0 | 0.0 | 0.00 | 0.64 | 0.61 | 79 | 1009.5 |
| 20260506200131 | 52 | 311 | 0.0 | 0.0 | 0.00 | 0.64 | 0.61 | 81 | 1009.4 |
| 20260506195630 | 52 | 311 | 0.0 | 0.0 | 0.00 | 0.64 | 0.61 | 81 | 1009.4 |
| 20260506195130 | 52 | 311 | 0.0 | 0.0 | 0.00 | 0.64 | 0.61 | 81 | 1009.4 |
| 20260506194630 | 52 | 311 | 0.0 | 0.0 | 0.00 | 0.64 | 0.61 | 82 | 1009.4 |
| 20260506194130 | 52 | 311 | 0.0 | 0.0 | 0.00 | 0.64 | 0.61 | 82 | 1009.3 |
| 20260506193629 | 52 | 311 | 0.0 | 0.0 | 0.00 | 0.64 | 0.61 | 83 | 1009.2 |
| 20260506193129 | 52 | 311 | 0.0 | 0.0 | 0.00 | 0.64 | 0.61 | 83 | 1009.1 |
| 20260506192629 | 52 | 311 | 0.0 | 0.0 | 0.00 | 0.64 | 0.61 | 83 | 1009.0 |
| 20260506192129 | 52 | 311 | 0.0 | 0.0 | 0.00 | 0.64 | 0.61 | 83 | 1008.9 |
| 20260506191628 | 52 | 311 | 0.0 | 0.0 | 0.00 | 0.64 | 0.61 | 83 | 1008.8 |
| 20260506191128 | 53 | 311 | 0.0 | 0.0 | 0.00 | 0.64 | 0.61 | 81 | 1008.7 |
| 20260506190628 | 53 | 311 | 0.0 | 0.0 | 0.00 | 0.64 | 0.61 | 82 | 1008.6 |
| 20260506190127 | 53 | 311 | 0.0 | 0.0 | 0.00 | 0.64 | 0.61 | 82 | 1008.6 |
| 20260506185627 | 53 | 311 | 0.0 | 0.0 | 0.00 | 0.64 | 0.61 | 82 | 1008.6 |
| 20260506185127 | 53 | 311 | 0.0 | 0.9 | 0.00 | 0.64 | 0.61 | 82 | 1008.5 |
| 20260506184627 | 53 | 311 | 0.0 | 0.0 | 0.00 | 0.64 | 0.61 | 82 | 1008.5 |
| 20260506184126 | 53 | 311 | 0.0 | 0.0 | 0.00 | 0.64 | 0.61 | 81 | 1008.4 |
| 20260506183626 | 54 | 311 | 0.0 | 0.9 | 0.00 | 0.64 | 0.61 | 80 | 1008.4 |
| 20260506183126 | 54 | 314 | 0.0 | 1.7 | 0.00 | 0.64 | 0.61 | 79 | 1008.3 |
| 20260506182626 | 54 | 314 | 0.0 | 0.0 | 0.00 | 0.64 | 0.61 | 79 | 1008.4 |
| 20260506182125 | 54 | 314 | 0.0 | 0.0 | 0.00 | 0.64 | 0.61 | 79 | 1008.3 |
| 20260506181625 | 54 | 314 | 0.0 | 0.0 | 0.00 | 0.64 | 0.61 | 79 | 1008.4 |
| 20260506181125 | 55 | 314 | 0.0 | 0.0 | 0.00 | 0.64 | 0.61 | 78 | 1008.3 |
| 20260506180624 | 55 | 314 | 0.0 | 0.0 | 0.00 | 0.64 | 0.61 | 78 | 1008.3 |
| 20260506180124 | 55 | 314 | 0.0 | 0.0 | 0.00 | 0.64 | 0.61 | 77 | 1008.2 |
| 20260506175624 | 55 | 314 | 0.0 | 0.9 | 0.00 | 0.67 | 0.61 | 77 | 1008.2 |
| 20260506175124 | 55 | 314 | 0.0 | 0.0 | 0.00 | 0.67 | 0.61 | 77 | 1008.2 |
| 20260506174623 | 55 | 314 | 0.0 | 0.9 | 0.00 | 0.67 | 0.61 | 76 | 1008.1 |
| 20260506174123 | 55 | 303 | 0.0 | 1.7 | 0.00 | 0.67 | 0.61 | 76 | 1008.0 |
| 20260506173623 | 55 | 316 | 0.0 | 3.5 | 0.00 | 0.67 | 0.61 | 76 | 1008.0 |
| 20260506173123 | 55 | 306 | 0.0 | 2.6 | 0.00 | 0.67 | 0.61 | 76 | 1008.0 |
| 20260506172622 | 55 | 316 | 0.9 | 2.6 | 0.00 | 0.67 | 0.61 | 76 | 1007.9 |
| 20260506172123 | 55 | 309 | 0.9 | 2.6 | 0.00 | 0.67 | 0.61 | 76 | 1007.9 |
| 20260506171622 | 55 | 309 | 0.9 | 1.7 | 0.00 | 0.67 | 0.61 | 77 | 1007.9 |
| 20260506171122 | 55 | 314 | 0.0 | 1.7 | 0.00 | 0.67 | 0.61 | 76 | 1007.8 |
| 20260506170621 | 55 | 307 | 0.0 | 2.6 | 0.00 | 0.67 | 0.61 | 75 | 1007.8 |
| 20260506170121 | 55 | 328 | 0.0 | 1.7 | 0.00 | 0.67 | 0.61 | 76 | 1007.8 |
| 20260506165621 | 55 | 293 | 0.0 | 0.9 | 0.00 | 0.69 | 0.61 | 78 | 1007.8 |
| 20260506165120 | 55 | 293 | 0.0 | 0.9 | 0.00 | 0.69 | 0.61 | 79 | 1007.8 |
| 20260506164620 | 54 | 320 | 0.0 | 0.0 | 0.00 | 0.69 | 0.61 | 79 | 1007.9 |
| 20260506164120 | 54 | 320 | 0.0 | 1.7 | 0.00 | 0.69 | 0.61 | 79 | 1007.8 |
| 20260506163620 | 54 | 310 | 0.0 | 0.0 | 0.00 | 0.69 | 0.61 | 80 | 1007.9 |
| 20260506163119 | 54 | 309 | 0.0 | 1.7 | 0.00 | 0.69 | 0.61 | 80 | 1007.9 |
| 20260506162619 | 54 | 306 | 0.0 | 1.7 | 0.00 | 0.69 | 0.61 | 79 | 1007.9 |
| 20260506162119 | 54 | 300 | 0.0 | 1.7 | 0.00 | 0.69 | 0.61 | 78 | 1007.9 |
| 20260506161619 | 54 | 311 | 0.0 | 3.5 | 0.00 | 0.69 | 0.61 | 77 | 1008.0 |
| 20260506161118 | 54 | 293 | 0.0 | 1.7 | 0.00 | 0.69 | 0.61 | 78 | 1008.0 |
| 20260506160618 | 55 | 285 | 0.0 | 1.7 | 0.00 | 0.69 | 0.61 | 77 | 1008.0 |
| 20260506160118 | 55 | 311 | 0.9 | 2.6 | 0.00 | 0.69 | 0.61 | 76 | 1008.0 |
| 20260506155618 | 55 | 307 | 0.9 | 1.7 | 0.00 | 0.69 | 0.61 | 75 | 1008.0 |
| 20260506155117 | 56 | 304 | 0.9 | 3.5 | 0.00 | 0.69 | 0.61 | 73 | 1008.0 |
| 20260506154617 | 56 | 307 | 0.0 | 1.7 | 0.00 | 0.69 | 0.61 | 77 | 1008.1 |
| 20260506154117 | 56 | 33 | 0.0 | 1.7 | 0.00 | 0.69 | 0.61 | 76 | 1008.0 |
| 20260506153616 | 56 | 310 | 0.0 | 1.7 | 0.00 | 0.69 | 0.61 | 78 | 1008.0 |
| 20260506153116 | 56 | 310 | 0.0 | 2.6 | 0.00 | 0.69 | 0.61 | 77 | 1008.1 |
| 20260506152616 | 55 | 120 | 0.0 | 1.7 | 0.00 | 0.69 | 0.61 | 79 | 1008.2 |
| 20260506152116 | 55 | 306 | 0.0 | 1.7 | 0.00 | 0.69 | 0.61 | 79 | 1008.2 |
| 20260506151615 | 55 | 269 | 0.0 | 1.7 | 0.00 | 0.69 | 0.61 | 80 | 1008.0 |
| 20260506151115 | 55 | 15 | 0.0 | 1.7 | 0.00 | 0.69 | 0.61 | 80 | 1008.1 |
| 20260506150615 | 55 | 299 | 0.0 | 4.3 | 0.00 | 0.69 | 0.61 | 77 | 1008.1 |
| 20260506150115 | 54 | 319 | 0.0 | 0.0 | 0.00 | 0.69 | 0.61 | 81 | 1008.2 |
| 20260506145614 | 54 | 319 | 0.0 | 0.0 | 0.00 | 0.69 | 0.61 | 80 | 1008.3 |
| 20260506145114 | 54 | 322 | 0.0 | 2.6 | 0.00 | 0.69 | 0.61 | 81 | 1008.3 |
| 20260506144614 | 54 | 309 | 0.0 | 1.7 | 0.00 | 0.69 | 0.61 | 80 | 1008.3 |
| 20260506144113 | 54 | 129 | 0.0 | 2.6 | 0.00 | 0.69 | 0.61 | 81 | 1008.4 |
| 20260506143613 | 53 | 124 | 0.9 | 1.7 | 0.00 | 0.69 | 0.61 | 82 | 1008.3 |
| 20260506143113 | 53 | 309 | 0.9 | 2.6 | 0.00 | 0.69 | 0.61 | 78 | 1008.3 |
| 20260506142613 | 53 | 314 | 0.9 | 1.7 | 0.00 | 0.69 | 0.61 | 80 | 1008.4 |
| 20260506142112 | 53 | 305 | 0.9 | 4.3 | 0.00 | 0.69 | 0.61 | 80 | 1008.4 |
| 20260506141615 | 53 | 266 | 0.9 | 4.3 | 0.00 | 0.69 | 0.61 | 80 | 1008.4 |
| 20260506141112 | 52 | 311 | 1.7 | 4.3 | 0.00 | 0.69 | 0.61 | 81 | 1008.5 |
| 20260506140612 | 52 | 321 | 1.7 | 4.3 | 0.00 | 0.69 | 0.61 | 82 | 1008.4 |
| 20260506140111 | 52 | 290 | 0.9 | 4.3 | 0.00 | 0.69 | 0.61 | 81 | 1008.5 |
| 20260506135611 | 52 | 313 | 1.7 | 6.1 | 0.00 | 0.69 | 0.61 | 82 | 1008.4 |
| 20260506135111 | 52 | 326 | 1.7 | 4.3 | 0.00 | 0.69 | 0.61 | 82 | 1008.5 |
| 20260506134610 | 52 | 311 | 1.7 | 6.1 | 0.00 | 0.69 | 0.61 | 81 | 1008.5 |
| 20260506134110 | 51 | 300 | 0.9 | 4.3 | 0.00 | 0.69 | 0.61 | 82 | 1008.6 |
| 20260506133610 | 51 | 308 | 0.9 | 4.3 | 0.00 | 0.69 | 0.61 | 83 | 1008.6 |
| 20260506133110 | 51 | 300 | 0.9 | 2.6 | 0.00 | 0.69 | 0.61 | 84 | 1008.5 |
| 20260506132609 | 51 | 300 | 1.7 | 3.5 | 0.00 | 0.69 | 0.61 | 84 | 1008.5 |
| 20260506132109 | 51 | 314 | 0.9 | 6.1 | 0.00 | 0.69 | 0.61 | 84 | 1008.7 |
| 20260506131609 | 51 | 307 | 0.9 | 3.5 | 0.00 | 0.69 | 0.61 | 86 | 1008.5 |
| 20260506131109 | 51 | 304 | 1.7 | 5.2 | 0.00 | 0.69 | 0.61 | 86 | 1008.5 |
| 20260506130608 | 51 | 312 | 0.9 | 6.1 | 0.01 | 0.69 | 0.61 | 85 | 1008.5 |
| 20260506130108 | 51 | 312 | 0.9 | 2.6 | 0.01 | 0.69 | 0.61 | 87 | 1008.4 |
| 20260506125608 | 51 | 303 | 0.9 | 6.1 | 0.01 | 0.69 | 0.61 | 86 | 1008.4 |
| 20260506125108 | 51 | 302 | 0.0 | 1.7 | 0.02 | 0.69 | 0.61 | 89 | 1008.4 |
| 20260506124607 | 50 | 313 | 0.9 | 1.7 | 0.02 | 0.69 | 0.61 | 90 | 1008.4 |
| 20260506124107 | 50 | 318 | 0.9 | 2.6 | 0.02 | 0.69 | 0.61 | 88 | 1008.3 |
| 20260506123607 | 50 | 310 | 0.9 | 2.6 | 0.02 | 0.69 | 0.61 | 89 | 1008.4 |
| 20260506123107 | 50 | 303 | 0.9 | 3.5 | 0.02 | 0.69 | 0.61 | 89 | 1008.3 |
| 20260506122606 | 50 | 293 | 0.0 | 1.7 | 0.02 | 0.69 | 0.61 | 90 | 1008.2 |
| 20260506122106 | 51 | 304 | 0.0 | 0.0 | 0.02 | 0.69 | 0.61 | 91 | 1008.1 |
| 20260506121606 | 50 | 304 | 0.0 | 3.5 | 0.02 | 0.69 | 0.61 | 89 | 1008.1 |
| 20260506121105 | 50 | 309 | 0.9 | 0.0 | 0.02 | 0.69 | 0.61 | 90 | 1008.0 |
| 20260506120605 | 50 | 309 | 0.9 | 5.2 | 0.01 | 0.68 | 0.60 | 87 | 1008.0 |
| 20260506120105 | 50 | 314 | 0.9 | 3.5 | 0.01 | 0.68 | 0.60 | 87 | 1007.9 |
| 20260506115605 | 51 | 316 | 0.9 | 4.3 | 0.01 | 0.68 | 0.60 | 85 | 1007.9 |
| 20260506115104 | 51 | 329 | 0.0 | 1.7 | 0.00 | 0.67 | 0.59 | 90 | 1007.9 |
| 20260506114604 | 52 | 120 | 0.0 | 0.9 | 0.00 | 0.67 | 0.59 | 91 | 1007.8 |
| 20260506114104 | 51 | 121 | 0.0 | 1.7 | 0.00 | 0.67 | 0.59 | 91 | 1007.7 |
| 20260506113604 | 52 | 120 | 0.0 | 0.9 | 0.00 | 0.67 | 0.59 | 92 | 1007.8 |
| 20260506113103 | 51 | 120 | 0.0 | 1.7 | 0.00 | 0.67 | 0.59 | 92 | 1007.8 |
| 20260506112603 | 51 | 117 | 0.0 | 1.7 | 0.00 | 0.67 | 0.59 | 92 | 1007.8 |
| 20260506112103 | 51 | 307 | 0.0 | 0.9 | 0.01 | 0.67 | 0.59 | 92 | 1007.8 |
| 20260506111603 | 51 | 127 | 0.0 | 0.9 | 0.01 | 0.67 | 0.59 | 94 | 1007.8 |
| 20260506111102 | 51 | 314 | 0.0 | 1.7 | 0.02 | 0.67 | 0.59 | 93 | 1007.8 |
| 20260506110602 | 51 | 103 | 0.0 | 0.9 | 0.02 | 0.67 | 0.59 | 94 | 1007.8 |
| 20260506105601 | 51 | 278 | 0.0 | 0.9 | 0.04 | 0.76 | 0.59 | 94 | 1007.8 |
| 20260506105101 | 50 | 278 | 0.0 | 0.9 | 0.04 | 0.76 | 0.59 | 94 | 1007.9 |
| 20260506104601 | 50 | 279 | 0.0 | 0.9 | 0.05 | 0.76 | 0.59 | 94 | 1007.9 |
| 20260506104101 | 50 | 120 | 0.0 | 0.0 | 0.05 | 0.76 | 0.59 | 95 | 1007.9 |
| 20260506103600 | 50 | 120 | 0.0 | 0.0 | 0.06 | 0.76 | 0.59 | 94 | 1007.9 |
| 20260506103100 | 50 | 120 | 0.0 | 0.9 | 0.06 | 0.76 | 0.59 | 94 | 1007.9 |
| 20260506102600 | 50 | 120 | 0.0 | 0.0 | 0.07 | 0.76 | 0.59 | 94 | 1007.9 |
| 20260506102100 | 50 | 120 | 0.0 | 0.9 | 0.07 | 0.75 | 0.58 | 94 | 1007.9 |
| 20260506101559 | 50 | 118 | 0.0 | 0.9 | 0.08 | 0.75 | 0.58 | 95 | 1007.9 |
| 20260506101059 | 49 | 118 | 0.0 | 0.0 | 0.08 | 0.74 | 0.57 | 94 | 1007.9 |
| 20260506100559 | 49 | 118 | 0.0 | 0.9 | 0.10 | 0.74 | 0.57 | 94 | 1007.9 |
| 20260506100059 | 49 | 139 | 0.0 | 0.0 | 0.10 | 0.73 | 0.56 | 94 | 1007.8 |
| 20260506095558 | 49 | 321 | 0.0 | 0.0 | 0.11 | 0.87 | 0.55 | 94 | 1007.8 |
| 20260506095058 | 48 | 321 | 0.0 | 1.7 | 0.12 | 0.87 | 0.55 | 94 | 1007.7 |
| 20260506094558 | 48 | 288 | 0.0 | 1.7 | 0.13 | 0.86 | 0.54 | 94 | 1007.7 |
| 20260506094058 | 48 | 317 | 0.0 | 1.7 | 0.14 | 0.86 | 0.54 | 94 | 1007.7 |
| 20260506093557 | 48 | 313 | 0.0 | 1.7 | 0.15 | 0.85 | 0.53 | 94 | 1007.6 |
| 20260506093057 | 48 | 294 | 0.0 | 0.9 | 0.16 | 0.85 | 0.53 | 94 | 1007.6 |
| 20260506092557 | 48 | 323 | 0.0 | 0.9 | 0.17 | 0.84 | 0.52 | 94 | 1007.5 |
| 20260506092056 | 48 | 289 | 0.9 | 2.6 | 0.17 | 0.83 | 0.51 | 94 | 1007.5 |
| 20260506091556 | 47 | 316 | 0.9 | 4.3 | 0.17 | 0.82 | 0.50 | 94 | 1007.4 |
| 20260506091056 | 48 | 293 | 0.9 | 3.5 | 0.18 | 0.81 | 0.49 | 94 | 1007.4 |
| 20260506090556 | 48 | 300 | 0.9 | 2.6 | 0.17 | 0.79 | 0.47 | 94 | 1007.3 |
| 20260506090055 | 48 | 300 | 0.9 | 5.2 | 0.17 | 0.78 | 0.46 | 94 | 1007.2 |
| 20260506085557 | 48 | 317 | 0.9 | 6.1 | 0.16 | 0.77 | 0.44 | 94 | 1007.1 |
| 20260506085055 | 48 | 304 | 0.9 | 6.1 | 0.17 | 0.76 | 0.43 | 94 | 1007.0 |
| 20260506084555 | 48 | 333 | 0.9 | 3.5 | 0.17 | 0.74 | 0.41 | 94 | 1006.8 |
| 20260506084054 | 49 | 313 | 0.9 | 5.2 | 0.17 | 0.73 | 0.40 | 94 | 1006.8 |
| 20260506083554 | 49 | 42 | 0.9 | 5.2 | 0.16 | 0.71 | 0.38 | 95 | 1006.7 |
| 20260506083054 | 49 | 313 | 0.9 | 4.3 | 0.17 | 0.70 | 0.37 | 95 | 1006.5 |
| 20260506082553 | 49 | 313 | 0.9 | 2.6 | 0.16 | 0.68 | 0.35 | 95 | 1006.4 |
| 20260506082053 | 49 | 308 | 0.0 | 1.7 | 0.16 | 0.67 | 0.34 | 95 | 1006.3 |
| 20260506081553 | 49 | 307 | 0.0 | 1.7 | 0.17 | 0.66 | 0.33 | 95 | 1006.3 |
| 20260506081053 | 49 | 314 | 0.0 | 0.9 | 0.17 | 0.64 | 0.31 | 95 | 1006.2 |
| 20260506080552 | 49 | 315 | 0.0 | 0.0 | 0.17 | 0.63 | 0.30 | 95 | 1006.2 |
| 20260506073051 | 49 | 306 | 0.0 | 0.0 | 0.13 | 0.53 | 0.20 | 95 | 1005.7 |
| 20260506072550 | 49 | 306 | 0.0 | 0.9 | 0.13 | 0.52 | 0.19 | 95 | 1005.7 |
| 20260506072050 | 49 | 304 | 0.0 | 0.9 | 0.13 | 0.51 | 0.18 | 95 | 1005.8 |
| 20260506071550 | 49 | 296 | 0.0 | 2.6 | 0.12 | 0.49 | 0.16 | 95 | 1005.6 |
| 20260506071050 | 49 | 319 | 0.9 | 3.5 | 0.10 | 0.47 | 0.14 | 95 | 1005.6 |
| 20260506070549 | 49 | 307 | 0.0 | 1.7 | 0.10 | 0.46 | 0.13 | 95 | 1005.5 |
| 20260506062047 | 49 | 319 | 0.0 | 0.0 | 0.04 | 0.38 | 0.05 | 95 | 1005.4 |
| 20260506061547 | 49 | 319 | 0.0 | 0.0 | 0.03 | 0.37 | 0.04 | 95 | 1005.4 |
| 20260506061046 | 49 | 320 | 0.0 | 0.0 | 0.03 | 0.37 | 0.04 | 95 | 1005.3 |
| 20260506060546 | 49 | 320 | 0.0 | 0.0 | 0.02 | 0.36 | 0.03 | 95 | 1005.2 |
| 20260506051043 | 48 | 320 | 0.0 | 0.0 | 0.00 | 0.34 | 0.01 | 95 | 1004.9 |
| 20260506050543 | 48 | 320 | 0.0 | 0.0 | 0.00 | 0.34 | 0.01 | 95 | 1004.8 |
| 20260506045042 | 48 | 319 | 0.0 | 0.0 | 0.00 | 0.38 | 0.01 | 95 | 1004.8 |
| 20260506044542 | 48 | 320 | 0.0 | 0.0 | 0.00 | 0.38 | 0.01 | 95 | 1004.8 |
| 20260506044041 | 48 | 320 | 0.0 | 0.0 | 0.00 | 0.38 | 0.01 | 95 | 1004.9 |
| 20260506043541 | 48 | 320 | 0.0 | 0.0 | 0.00 | 0.38 | 0.01 | 95 | 1004.9 |
| 20260506043041 | 48 | 319 | 0.0 | 0.0 | 0.00 | 0.38 | 0.01 | 95 | 1004.9 |
| 20260506042541 | 48 | 319 | 0.0 | 0.0 | 0.00 | 0.38 | 0.01 | 95 | 1004.9 |
| 20260506042040 | 48 | 320 | 0.0 | 0.0 | 0.00 | 0.38 | 0.01 | 95 | 1005.0 |
| 20260506041540 | 48 | 319 | 0.0 | 0.0 | 0.00 | 0.38 | 0.01 | 95 | 1005.0 |
| 20260506041040 | 48 | 320 | 0.0 | 0.0 | 0.00 | 0.38 | 0.01 | 95 | 1005.0 |
| 20260506040540 | 48 | 320 | 0.0 | 0.0 | 0.00 | 0.38 | 0.01 | 95 | 1005.1 |
| 20260506040039 | 47 | 320 | 0.0 | 0.0 | 0.00 | 0.38 | 0.01 | 95 | 1005.1 |
| 20260506035539 | 47 | 319 | 0.0 | 0.0 | 0.00 | 0.50 | 0.01 | 95 | 1005.1 |
| 20260506035039 | 47 | 320 | 0.0 | 0.0 | 0.00 | 0.50 | 0.01 | 95 | 1005.1 |
| 20260506034539 | 47 | 320 | 0.0 | 0.0 | 0.00 | 0.50 | 0.01 | 95 | 1005.1 |
| 20260506034038 | 47 | 319 | 0.0 | 0.0 | 0.00 | 0.50 | 0.01 | 95 | 1005.1 |
| 20260506033538 | 47 | 320 | 0.0 | 0.0 | 0.00 | 0.50 | 0.01 | 95 | 1005.1 |
| 20260506033038 | 47 | 320 | 0.0 | 0.0 | 0.00 | 0.50 | 0.01 | 95 | 1005.1 |
| 20260506032537 | 47 | 320 | 0.0 | 0.0 | 0.00 | 0.50 | 0.01 | 95 | 1005.2 |
| 20260506032037 | 47 | 320 | 0.0 | 0.0 | 0.00 | 0.50 | 0.01 | 95 | 1005.3 |
| 20260506031537 | 47 | 319 | 0.0 | 0.0 | 0.00 | 0.50 | 0.01 | 95 | 1005.3 |
| 20260506031037 | 47 | 319 | 0.0 | 0.0 | 0.00 | 0.50 | 0.01 | 95 | 1005.3 |
| 20260506030536 | 48 | 320 | 0.0 | 0.0 | 0.00 | 0.50 | 0.01 | 95 | 1005.3 |
| 20260506030036 | 48 | 319 | 0.0 | 0.0 | 0.01 | 0.50 | 0.01 | 95 | 1005.4 |
| 20260506025536 | 48 | 320 | 0.0 | 0.0 | 0.01 | 0.59 | 0.01 | 95 | 1005.5 |
| 20260506025036 | 48 | 320 | 0.0 | 0.0 | 0.01 | 0.59 | 0.01 | 95 | 1005.4 |
| 20260506024535 | 48 | 319 | 0.0 | 0.0 | 0.01 | 0.59 | 0.01 | 95 | 1005.4 |
| 20260506024035 | 48 | 320 | 0.0 | 0.0 | 0.01 | 0.59 | 0.01 | 95 | 1005.4 |
| 20260506023535 | 48 | 319 | 0.0 | 0.0 | 0.01 | 0.59 | 0.01 | 95 | 1005.6 |
| 20260506023034 | 48 | 320 | 0.0 | 0.0 | 0.01 | 0.59 | 0.01 | 95 | 1005.7 |
| 20260506022534 | 48 | 320 | 0.0 | 0.0 | 0.01 | 0.59 | 0.01 | 94 | 1005.7 |
| 20260506022034 | 48 | 320 | 0.0 | 0.0 | 0.01 | 0.59 | 0.01 | 94 | 1005.9 |
| 20260506021534 | 48 | 319 | 0.0 | 0.0 | 0.01 | 0.59 | 0.01 | 94 | 1005.9 |
| 20260506021033 | 48 | 319 | 0.0 | 0.0 | 0.01 | 0.59 | 0.01 | 94 | 1005.9 |
| 20260506020533 | 49 | 320 | 0.0 | 0.0 | 0.01 | 0.59 | 0.01 | 94 | 1005.9 |
| 20260506020033 | 49 | 319 | 0.0 | 0.0 | 0.00 | 0.58 | 0.00 | 95 | 1005.9 |
| 20260506015533 | 49 | 319 | 0.0 | 0.0 | 0.00 | 0.69 | 0.00 | 94 | 1006.0 |
| 20260506015032 | 49 | 320 | 0.0 | 0.0 | 0.00 | 0.69 | 0.00 | 94 | 1006.0 |
| 20260506014532 | 49 | 319 | 0.0 | 0.0 | 0.00 | 0.69 | 0.00 | 94 | 1006.1 |
| 20260506014032 | 49 | 320 | 0.0 | 0.0 | 0.00 | 0.69 | 0.00 | 94 | 1006.1 |
| 20260506013532 | 49 | 320 | 0.0 | 0.0 | 0.00 | 0.69 | 0.00 | 94 | 1006.2 |
| 20260506013031 | 49 | 319 | 0.0 | 0.0 | 0.00 | 0.69 | 0.00 | 94 | 1006.2 |
| 20260506012531 | 50 | 319 | 0.0 | 0.0 | 0.00 | 0.69 | 0.00 | 94 | 1006.3 |
| 20260506012031 | 50 | 320 | 0.0 | 0.0 | 0.00 | 0.69 | 0.00 | 94 | 1006.3 |
| 20260506011530 | 50 | 320 | 0.0 | 0.0 | 0.00 | 0.69 | 0.00 | 94 | 1006.4 |
| 20260506011030 | 50 | 320 | 0.0 | 0.0 | 0.00 | 0.69 | 0.00 | 94 | 1006.4 |
| 20260506010530 | 50 | 319 | 0.0 | 0.0 | 0.00 | 0.69 | 0.00 | 94 | 1006.6 |
| 20260506010030 | 50 | 320 | 0.0 | 0.0 | 0.00 | 0.69 | 0.00 | 94 | 1006.7 |
| 20260506005529 | 50 | 320 | 0.0 | 0.0 | 0.00 | 0.81 | 0.00 | 94 | 1006.8 |
| 20260506005029 | 51 | 319 | 0.0 | 0.0 | 0.00 | 0.81 | 0.00 | 94 | 1006.9 |
| 20260506004529 | 51 | 319 | 0.0 | 0.0 | 0.00 | 0.81 | 0.00 | 94 | 1006.9 |
| 20260506004029 | 51 | 320 | 0.0 | 0.0 | 0.00 | 0.81 | 0.00 | 94 | 1007.0 |